Time;durP1;ratioP1;P1;durP2;ratioP2;P2;SDS_P1;SDS_P2;PMS_P1;PMS_P2;Temp;Humidity;BMP_temperature;BMP_pressure;BME280_temperature;BME280_humidity;BME280_pressure;Samples;Min_cycle;Max_cycle;Signal;HPM_P1;HPM_P2
2022/06/22 00:01:15;;;;;;;3.15;0.70;;;;;;;17.18;50.96;98525.88;5120925;28;19995;-66
2022/06/22 00:04:02;;;;;;;0.70;0.45;;;;;;;17.18;49.38;98527.69;5111092;28;20036;-64
2022/06/22 00:06:54;;;;;;;1.50;0.63;;;;;;;17.20;49.45;98539.75;5115471;28;20496;-66
2022/06/22 00:09:41;;;;;;;1.15;0.70;;;;;;;17.16;48.65;98530.47;5099930;28;20467;-65
2022/06/22 00:12:29;;;;;;;2.85;0.60;;;;;;;17.11;48.89;98535.38;5096960;28;20092;-65
2022/06/22 00:15:35;;;;;;;2.95;0.63;;;;;;;17.10;48.34;98541.69;5115340;28;20032;-65
2022/06/22 00:18:27;;;;;;;2.53;0.80;;;;;;;17.07;49.43;98532.19;5068884;28;20074;-64
2022/06/22 00:21:27;;;;;;;2.47;0.73;;;;;;;17.06;49.97;98527.03;5099101;28;20044;-64
2022/06/22 00:24:39;;;;;;;2.75;0.70;;;;;;;17.09;50.12;98530.25;5098947;28;20047;-64
2022/06/22 00:27:35;;;;;;;;;;;;;;;17.07;48.97;98526.06;5099558;28;20035;-65
2022/06/22 00:30:30;;;;;;;1.10;0.68;;;;;;;17.10;49.65;98534.56;5088969;28;20015;-64
2022/06/22 00:33:22;;;;;;;1.38;0.50;;;;;;;17.16;49.56;98534.94;5101027;28;20051;-64
2022/06/22 00:36:07;;;;;;;1.60;0.60;;;;;;;17.07;49.54;98526.06;5115463;28;20118;-64
2022/06/22 00:38:52;;;;;;;1.83;0.70;;;;;;;17.01;49.94;98530.16;5115873;28;20044;-64
2022/06/22 00:41:36;;;;;;;2.25;0.70;;;;;;;16.96;50.10;98522.69;5114651;28;20032;-63
2022/06/22 00:44:25;;;;;;;0.70;0.70;;;;;;;16.94;49.13;98519.34;5115020;28;20057;-65
2022/06/22 00:47:21;;;;;;;0.82;0.50;;;;;;;16.99;50.21;98518.88;5095657;28;20089;-65
2022/06/22 00:50:14;;;;;;;1.10;0.50;;;;;;;16.98;49.93;98520.72;5114624;28;20054;-63
2022/06/22 00:53:05;;;;;;;1.75;0.63;;;;;;;17.04;48.34;98518.44;5111674;28;20104;-63
2022/06/22 00:55:57;;;;;;;0.55;0.43;;;;;;;17.10;48.52;98520.50;5097821;28;20378;-64
2022/06/22 00:59:03;;;;;;;1.05;0.40;;;;;;;17.03;48.57;98504.38;5099449;28;20435;-65
2022/06/22 01:02:11;;;;;;;0.88;0.50;;;;;;;17.01;48.34;98514.28;5096600;28;20040;-65
2022/06/22 01:05:29;;;;;;;2.28;0.70;;;;;;;16.98;48.86;98514.59;5092560;28;20059;-64
2022/06/22 01:08:21;;;;;;;0.85;0.60;;;;;;;16.97;47.60;98502.34;5103124;28;20044;-64
2022/06/22 01:12:16;;;;;;;;;;;;;;;16.97;48.43;98499.72;5099121;28;20119;-63
2022/06/22 01:14:39;;;;;;;0.82;0.60;;;;;;;16.86;50.60;98512.19;5113747;28;19967;-64
2022/06/22 01:17:46;;;;;;;1.60;0.70;;;;;;;16.79;48.42;98524.38;5101078;28;20040;-65
2022/06/22 01:20:31;;;;;;;0.70;0.50;;;;;;;16.87;49.01;98521.75;5099128;28;20048;-64
2022/06/22 01:23:23;;;;;;;0.77;0.60;;;;;;;16.90;48.75;98518.00;5087061;28;20122;-63
2022/06/22 01:26:17;;;;;;;1.67;0.70;;;;;;;16.78;49.29;98512.09;5097893;28;20032;-64
2022/06/22 01:29:10;;;;;;;2.78;0.68;;;;;;;16.69;49.61;98516.50;5098613;28;20055;-63
2022/06/22 01:32:02;;;;;;;1.42;0.77;;;;;;;16.70;49.75;98526.09;5080502;28;20047;-62
2022/06/22 01:34:47;;;;;;;0.70;0.60;;;;;;;16.69;50.33;98524.44;5095583;28;20031;-64
2022/06/22 01:37:33;;;;;;;1.77;0.63;;;;;;;16.72;51.31;98532.06;5113988;28;20047;-64
2022/06/22 01:40:24;;;;;;;1.17;0.75;;;;;;;16.68;50.53;98529.88;5067343;28;20554;-65
2022/06/22 01:43:23;;;;;;;1.58;0.80;;;;;;;16.58;52.76;98529.94;5112832;28;20035;-65
2022/06/22 01:46:24;;;;;;;1.23;0.90;;;;;;;16.56;52.80;98532.75;5097777;28;20047;-65
2022/06/22 01:49:11;;;;;;;;;;;;;;;16.49;52.64;98537.78;5102837;28;20040;-63
2022/06/22 01:52:12;;;;;;;1.33;0.60;;;;;;;16.50;52.20;98539.44;5097623;28;20056;-64
2022/06/22 01:55:05;;;;;;;2.15;0.70;;;;;;;16.57;52.88;98554.69;5113915;28;20466;-62
2022/06/22 01:58:14;;;;;;;0.88;0.60;;;;;;;16.45;54.29;98554.09;5118843;28;20405;-64
2022/06/22 02:01:09;;;;;;;1.45;0.70;;;;;;;16.30;54.83;98544.03;5117835;28;20462;-64
2022/06/22 02:04:19;;;;;;;2.33;0.57;;;;;;;16.30;55.04;98546.66;5106131;28;20031;-63
2022/06/22 02:07:46;;;;;;;1.58;0.60;;;;;;;16.29;55.28;98558.22;5112557;28;20061;-64
2022/06/22 02:10:50;;;;;;;1.77;0.88;;;;;;;16.25;56.29;98552.38;5113382;28;20433;-65
2022/06/22 02:13:41;;;;;;;1.02;0.60;;;;;;;16.31;55.18;98550.97;5097280;28;20036;-64
2022/06/22 02:16:25;;;;;;;1.40;0.93;;;;;;;16.42;54.26;98557.03;5094596;28;20497;-64
2022/06/22 02:19:14;;;;;;;1.13;0.80;;;;;;;16.35;55.32;98565.53;5108285;28;20471;-64
2022/06/22 02:22:01;;;;;;;1.05;0.73;;;;;;;16.33;55.45;98570.16;5105184;28;20039;-64
2022/06/22 02:24:47;;;;;;;1.52;1.00;;;;;;;16.33;53.02;98577.25;5096796;28;20036;-64
2022/06/22 02:27:32;;;;;;;1.45;0.73;;;;;;;16.37;53.08;98583.88;5103079;28;20053;-64
2022/06/22 02:30:16;;;;;;;1.85;1.00;;;;;;;16.37;54.85;98582.09;5102007;28;20039;-64
2022/06/22 02:33:02;;;;;;;2.00;1.08;;;;;;;16.36;55.85;98588.38;5099803;28;20043;-64
2022/06/22 02:35:47;;;;;;;1.58;0.73;;;;;;;16.29;55.40;98579.34;5082772;28;20063;-65
2022/06/22 02:38:32;;;;;;;1.23;0.80;;;;;;;16.29;55.68;98576.72;5103687;28;20086;-63
2022/06/22 02:44:30;;;;;;;2.95;1.08;;;;;;;16.16;56.43;98603.47;5068117;28;20486;-64
2022/06/22 02:47:14;;;;;;;1.25;0.90;;;;;;;16.21;56.25;98588.00;5097414;28;20040;-62
2022/06/22 02:50:13;;;;;;;3.47;0.80;;;;;;;16.41;55.75;98592.38;5082889;28;20088;-65
2022/06/22 02:53:06;;;;;;;2.33;0.90;;;;;;;16.49;55.61;98585.38;5111806;28;20035;-64
2022/06/22 02:55:53;;;;;;;2.03;0.90;;;;;;;16.29;55.73;98575.91;5100813;28;20449;-65
2022/06/22 02:58:38;;;;;;;1.58;1.02;;;;;;;16.20;55.45;98569.66;5083240;28;20039;-64
2022/06/22 03:01:27;;;;;;;2.58;1.05;;;;;;;16.19;55.05;98562.72;5111484;28;20508;-64
2022/06/22 03:04:15;;;;;;;2.58;0.90;;;;;;;16.17;55.04;98556.75;5096937;28;20038;-65
2022/06/22 03:07:01;;;;;;;2.03;1.00;;;;;;;16.13;55.69;98553.56;5096212;28;20039;-65
2022/06/22 03:09:47;;;;;;;1.35;0.80;;;;;;;16.21;55.81;98552.81;5097226;28;20096;-65
2022/06/22 03:12:32;;;;;;;1.52;0.93;;;;;;;16.22;56.00;98541.28;5111879;28;20042;-65
2022/06/22 03:15:21;;;;;;;1.05;0.80;;;;;;;16.34;55.80;98537.47;5112185;28;20623;-65
2022/06/22 03:18:13;;;;;;;0.93;0.80;;;;;;;16.37;55.75;98538.97;5112149;28;20039;-64
2022/06/22 03:21:07;;;;;;;1.52;0.90;;;;;;;16.48;55.42;98540.59;5084805;28;20451;-64
2022/06/22 03:24:11;;;;;;;1.40;0.90;;;;;;;16.52;54.75;98536.66;5084209;28;20041;-64
2022/06/22 03:27:02;;;;;;;1.23;0.70;;;;;;;16.49;55.46;98547.53;5081504;28;20472;-63
2022/06/22 03:29:57;;;;;;;1.33;1.02;;;;;;;16.32;56.10;98535.94;5091427;28;20074;-63
2022/06/22 03:33:00;;;;;;;2.53;0.65;;;;;;;16.47;55.90;98537.09;5094679;28;20060;-64
2022/06/22 03:35:51;;;;;;;2.25;0.70;;;;;;;16.48;56.04;98520.25;5094897;28;20060;-63
2022/06/22 03:38:39;;;;;;;;;;;;;;;16.52;55.96;98526.06;5085002;28;20032;-65
2022/06/22 03:41:28;;;;;;;1.50;0.70;;;;;;;16.81;55.56;98524.22;5091473;28;20019;-64
2022/06/22 03:44:20;;;;;;;1.13;0.73;;;;;;;16.83;54.97;98528.34;5088676;28;20044;-64
2022/06/22 03:47:34;;;;;;;;;;;;;;;16.94;54.64;98532.56;5084975;28;20064;-64
2022/06/22 03:50:32;;;;;;;1.27;0.60;;;;;;;16.94;55.30;98545.00;5091267;28;20025;-63
2022/06/22 03:53:33;;;;;;;1.55;0.68;;;;;;;16.76;55.62;98551.13;5093393;28;20047;-64
2022/06/22 03:56:24;;;;;;;2.65;0.95;;;;;;;16.69;56.28;98556.16;5080596;28;20070;-62
2022/06/22 03:59:09;;;;;;;1.92;1.15;;;;;;;16.67;55.01;98550.19;5074206;28;20048;-63
2022/06/22 04:01:56;;;;;;;1.33;0.90;;;;;;;16.62;56.63;98542.72;5101345;28;20089;-65
2022/06/22 04:04:41;;;;;;;0.98;0.70;;;;;;;16.61;56.73;98554.25;5094575;28;20410;-65
2022/06/22 04:07:36;;;;;;;2.40;1.00;;;;;;;16.68;56.31;98567.72;5093585;28;20032;-66
2022/06/22 04:10:30;;;;;;;1.33;0.75;;;;;;;16.78;56.63;98570.28;5094279;28;20800;-64
2022/06/22 04:13:24;;;;;;;1.02;0.70;;;;;;;16.80;57.18;98564.84;5095092;28;20039;-64
2022/06/22 04:16:14;;;;;;;2.83;0.90;;;;;;;16.86;57.60;98573.03;5095103;28;20395;-65
2022/06/22 04:19:04;;;;;;;2.67;0.98;;;;;;;17.18;56.59;98585.91;5096288;28;20476;-64
2022/06/22 04:21:53;;;;;;;1.15;0.75;;;;;;;17.47;53.67;98593.59;5101290;28;20096;-64
2022/06/22 04:24:53;;;;;;;2.28;1.00;;;;;;;17.58;55.14;98604.88;5114057;28;20482;-64
2022/06/22 04:27:42;;;;;;;0.82;0.73;;;;;;;17.65;52.26;98616.53;5100178;28;20039;-64
2022/06/22 04:30:31;;;;;;;3.58;0.88;;;;;;;17.66;51.92;98614.72;5100924;28;20395;-64
2022/06/22 04:33:26;;;;;;;1.88;0.75;;;;;;;17.67;51.27;98611.09;5115501;28;20104;-64
2022/06/22 04:36:27;;;;;;;2.78;1.02;;;;;;;17.65;50.37;98605.94;5101412;28;20467;-64
2022/06/22 04:39:18;;;;;;;1.83;0.93;;;;;;;17.70;50.13;98597.53;5112541;28;20071;-64
2022/06/22 04:42:04;;;;;;;1.60;0.90;;;;;;;17.80;49.79;98603.56;5098760;28;20040;-64
2022/06/22 04:44:51;;;;;;;1.33;0.77;;;;;;;17.84;50.53;98604.91;5099670;28;20043;-64
2022/06/22 04:47:38;;;;;;;0.90;0.70;;;;;;;17.87;52.79;98608.25;5114160;28;20471;-63
2022/06/22 04:50:22;;;;;;;3.30;0.70;;;;;;;17.96;54.44;98607.28;5079647;28;20111;-64
2022/06/22 04:53:17;;;;;;;1.77;0.80;;;;;;;18.07;53.80;98604.38;5083823;28;20039;-64
2022/06/22 04:56:05;;;;;;;1.13;0.70;;;;;;;18.03;54.13;98592.44;5098016;28;20096;-65
2022/06/22 04:58:56;;;;;;;1.55;0.88;;;;;;;18.21;51.68;98613.56;5114724;28;20086;-65
2022/06/22 05:01:47;;;;;;;2.08;0.98;;;;;;;18.42;51.37;98619.47;5113749;28;20031;-64
2022/06/22 05:04:40;;;;;;;1.83;0.73;;;;;;;18.34;51.86;98607.81;5114458;28;20036;-63
2022/06/22 05:07:38;;;;;;;2.42;1.20;;;;;;;18.50;49.92;98600.09;5083572;28;20040;-65
2022/06/22 05:10:46;;;;;;;2.30;0.85;;;;;;;18.73;50.58;98591.53;5114472;28;20055;-65
2022/06/22 05:13:38;;;;;;;1.40;1.00;;;;;;;18.65;50.73;98603.81;5100612;28;20050;-64
2022/06/22 05:16:27;;;;;;;1.27;0.90;;;;;;;18.65;55.12;98598.50;5084311;28;20097;-64
2022/06/22 05:19:13;;;;;;;2.17;1.05;;;;;;;18.56;58.10;98597.63;5099148;28;20063;-64
2022/06/22 05:21:59;;;;;;;2.08;1.00;;;;;;;18.68;54.67;98592.03;5099073;28;20426;-64
2022/06/22 05:24:53;;;;;;;2.22;1.17;;;;;;;18.67;56.27;98601.00;5114323;28;20031;-64
2022/06/22 05:27:51;;;;;;;2.00;1.30;;;;;;;18.40;55.84;98593.13;5098873;28;20035;-65
2022/06/22 05:30:46;;;;;;;1.48;1.00;;;;;;;18.32;55.40;98609.81;5110503;28;20047;-64
2022/06/22 05:33:33;;;;;;;1.25;0.98;;;;;;;18.51;64.65;98613.19;5099007;28;20039;-63
2022/06/22 05:36:23;;;;;;;2.35;1.10;;;;;;;18.34;68.06;98593.75;5100743;28;20064;-64
2022/06/22 05:39:08;;;;;;;1.67;1.00;;;;;;;18.42;66.62;98587.66;5113694;28;20031;-64
2022/06/22 05:41:53;;;;;;;2.40;1.20;;;;;;;18.86;63.71;98586.59;5113158;28;20089;-66
2022/06/22 05:44:38;;;;;;;2.45;1.20;;;;;;;19.20;59.79;98588.31;5070048;28;20080;-65
2022/06/22 05:47:31;;;;;;;5.78;1.73;;;;;;;19.25;53.92;98586.97;5113205;28;20039;-65
2022/06/22 05:50:50;;;;;;;7.72;2.08;;;;;;;19.47;53.04;98584.66;5113479;28;20039;-65
2022/06/22 05:53:45;;;;;;;2.83;1.23;;;;;;;19.89;51.95;98580.94;5109258;28;20051;-64
2022/06/22 05:56:36;;;;;;;2.42;1.48;;;;;;;19.75;51.86;98574.47;5111230;28;20297;-64
2022/06/22 05:59:30;;;;;;;2.70;1.58;;;;;;;19.72;53.60;98581.94;5113118;28;20039;-64
2022/06/22 06:02:41;;;;;;;2.92;1.20;;;;;;;20.01;50.79;98592.00;5091584;28;20039;-63
2022/06/22 06:06:08;;;;;;;2.78;1.20;;;;;;;20.04;52.07;98597.00;5102760;28;21547;-64
2022/06/22 06:09:04;;;;;;;2.70;1.15;;;;;;;20.54;51.92;98590.66;5040934;28;20049;-64
2022/06/22 06:11:58;;;;;;;2.25;1.05;;;;;;;20.46;51.26;98599.53;5092335;28;20484;-66
2022/06/22 06:14:47;;;;;;;1.50;1.10;;;;;;;20.18;51.55;98603.47;5101918;28;20510;-64
2022/06/22 06:17:40;;;;;;;3.45;1.25;;;;;;;20.59;50.12;98622.06;5112272;28;20038;-65
2022/06/22 06:20:33;;;;;;;3.05;1.08;;;;;;;21.19;47.60;98618.91;5112374;28;20396;-63
2022/06/22 06:23:34;;;;;;;5.90;1.10;;;;;;;20.72;48.48;98613.53;5092066;28;20082;-63
2022/06/22 06:29:56;;;;;;;3.95;1.15;;;;;;;21.70;46.85;98607.66;5101897;28;20420;-63
2022/06/22 06:32:53;;;;;;;1.73;1.30;;;;;;;21.75;46.39;98599.09;5083192;28;20031;-64
2022/06/22 06:35:47;;;;;;;2.42;1.50;;;;;;;21.72;46.14;98602.13;5111644;28;20109;-64
2022/06/22 06:38:38;;;;;;;2.20;1.42;;;;;;;21.96;46.28;98598.41;5112523;28;20038;-64
2022/06/22 06:41:35;;;;;;;2.60;1.50;;;;;;;22.11;45.18;98597.59;5097401;28;20122;-64
2022/06/22 06:44:23;;;;;;;1.90;1.48;;;;;;;22.54;44.30;98596.88;5111669;28;20120;-63
2022/06/22 06:47:33;;;;;;;3.30;1.20;;;;;;;22.56;44.35;98589.50;5112780;28;20047;-65
2022/06/22 06:50:26;;;;;;;1.85;1.00;;;;;;;22.19;43.65;98586.81;5111976;28;20463;-64
2022/06/22 06:53:14;;;;;;;2.30;1.40;;;;;;;22.65;43.54;98574.25;5098977;28;20038;-64
2022/06/22 06:56:17;;;;;;;4.20;1.13;;;;;;;22.89;43.04;98580.25;5112677;28;20043;-68
2022/06/22 06:59:08;;;;;;;3.83;1.27;;;;;;;23.63;42.67;98588.09;5097633;28;20067;-65
2022/06/22 07:01:53;;;;;;;4.05;1.35;;;;;;;23.50;40.53;98586.16;5111922;28;20059;-64
2022/06/22 07:04:37;;;;;;;2.75;1.00;;;;;;;22.84;43.07;98590.66;5111558;28;20374;-64
2022/06/22 07:07:43;;;;;;;4.88;1.50;;;;;;;22.97;42.63;98590.78;5110786;28;20042;-64
2022/06/22 07:10:37;;;;;;;3.10;1.25;;;;;;;22.98;40.97;98583.63;5092623;28;20110;-65
2022/06/22 07:13:27;;;;;;;1.83;0.98;;;;;;;22.69;40.79;98582.69;5111945;28;20036;-64
2022/06/22 07:16:25;;;;;;;2.95;1.30;;;;;;;23.25;39.21;98584.69;5083728;28;20110;-65
2022/06/22 07:19:28;;;;;;;3.20;0.90;;;;;;;23.67;34.52;98585.81;5110746;28;20032;-64
2022/06/22 07:22:31;;;;;;;2.65;0.85;;;;;;;22.93;37.44;98589.50;5110719;28;20050;-65
2022/06/22 07:25:28;;;;;;;1.45;0.60;;;;;;;22.92;35.14;98595.88;5096375;28;20070;-65
2022/06/22 07:28:37;;;;;;;2.35;0.80;;;;;;;23.74;37.06;98598.25;5099481;28;20036;-64
2022/06/22 07:31:26;;;;;;;3.00;0.70;;;;;;;23.50;36.40;98583.47;5100602;28;20089;-65
2022/06/22 07:34:31;;;;;;;0.95;0.70;;;;;;;22.99;37.25;98593.28;5095432;28;20096;-65
2022/06/22 07:37:33;;;;;;;4.20;0.80;;;;;;;23.59;37.89;98595.66;5111377;28;20040;-63
2022/06/22 07:40:23;;;;;;;2.63;0.95;;;;;;;24.64;36.32;98592.28;5111248;28;20043;-65
2022/06/22 07:43:10;;;;;;;1.40;0.85;;;;;;;24.65;35.16;98592.09;5099390;28;20039;-64
2022/06/22 07:45:55;;;;;;;1.85;0.88;;;;;;;24.86;35.35;98601.00;5095638;28;20047;-65
2022/06/22 07:48:46;;;;;;;2.05;0.80;;;;;;;24.61;34.77;98577.47;5076035;28;20040;-65
2022/06/22 07:51:34;;;;;;;2.90;1.10;;;;;;;23.95;36.32;98580.47;5101243;28;20042;-64
2022/06/22 07:54:44;;;;;;;2.15;1.27;;;;;;;24.19;35.71;98575.66;5077502;28;20471;-64
2022/06/22 07:57:31;;;;;;;2.53;1.52;;;;;;;24.30;36.36;98578.81;5111667;28;20055;-65
2022/06/22 08:00:19;;;;;;;4.30;0.90;;;;;;;23.70;33.81;98580.91;5100462;28;20044;-65
2022/06/22 08:03:44;;;;;;;3.70;0.90;;;;;;;25.11;32.14;98576.34;5111333;28;20417;-64
2022/06/22 08:06:40;;;;;;;1.50;1.00;;;;;;;24.84;33.31;98565.56;5112680;28;20065;-63
2022/06/22 08:09:36;;;;;;;4.72;1.60;;;;;;;24.28;35.04;98549.56;5084701;28;20053;-64
2022/06/22 08:12:58;;;;;;;3.50;1.40;;;;;;;23.78;35.69;98555.88;5091921;28;20032;-65
2022/06/22 08:15:50;;;;;;;3.00;1.40;;;;;;;24.51;34.67;98558.28;5107840;28;20044;-65
2022/06/22 08:18:36;;;;;;;2.53;1.40;;;;;;;24.86;33.62;98552.78;5114843;28;20047;-64
2022/06/22 08:21:21;;;;;;;2.42;1.23;;;;;;;24.68;32.71;98551.53;5087166;28;20044;-65
2022/06/22 08:24:10;;;;;;;2.25;1.42;;;;;;;24.99;33.03;98540.47;5098307;28;20039;-64
2022/06/22 08:26:57;;;;;;;2.22;1.60;;;;;;;25.39;32.50;98535.09;5078625;28;20646;-64
2022/06/22 08:29:45;;;;;;;3.17;1.40;;;;;;;24.87;33.36;98529.50;5108690;28;20417;-64
2022/06/22 08:32:33;;;;;;;3.70;1.70;;;;;;;25.05;33.67;98534.31;5108291;28;20040;-65
2022/06/22 08:35:23;;;;;;;3.42;0.93;;;;;;;26.43;33.44;98522.84;5087463;28;20039;-66
2022/06/22 08:38:33;;;;;;;3.42;1.40;;;;;;;25.75;33.08;98524.13;5098210;28;20027;-65
2022/06/22 08:41:51;;;;;;;2.33;1.40;;;;;;;25.71;34.04;98527.25;5113967;28;20458;-64
2022/06/22 08:44:50;;;;;;;2.17;1.35;;;;;;;26.35;32.45;98533.00;5114458;28;20032;-65
2022/06/22 08:47:43;;;;;;;5.68;1.73;;;;;;;25.01;34.10;98549.13;5090959;28;20383;-65
2022/06/22 08:50:56;;;;;;;4.15;1.35;;;;;;;24.84;34.60;98557.53;5099068;28;20039;-65
2022/06/22 08:54:14;;;;;;;3.60;1.10;;;;;;;26.19;32.52;98546.69;5113847;28;20035;-65
2022/06/22 08:57:10;;;;;;;1.95;1.35;;;;;;;25.70;32.52;98556.94;5113596;28;20501;-66
2022/06/22 09:00:14;;;;;;;2.97;1.23;;;;;;;26.87;31.53;98556.22;5114000;28;20044;-64
2022/06/22 09:03:07;;;;;;;1.63;1.05;;;;;;;27.30;30.62;98560.88;5114248;28;20471;-66
2022/06/22 09:06:26;;;;;;;4.57;1.10;;;;;;;26.64;31.84;98566.50;5114066;28;20042;-65
2022/06/22 09:09:47;;;;;;;2.13;1.23;;;;;;;28.43;29.31;98557.47;5077865;28;20040;-65
2022/06/22 09:12:46;;;;;;;3.47;1.30;;;;;;;28.08;28.38;98562.41;5097092;28;20036;-63
2022/06/22 09:15:41;;;;;;;1.85;1.10;;;;;;;29.00;27.55;98551.66;5098513;28;20040;-67
2022/06/22 09:18:52;;;;;;;2.65;0.90;;;;;;;28.61;28.19;98552.00;5114710;28;20036;-65
2022/06/22 09:22:12;;;;;;;1.48;0.93;;;;;;;29.46;27.59;98561.09;5104379;28;20031;-63
2022/06/22 09:25:02;;;;;;;4.55;1.42;;;;;;;30.00;27.27;98568.19;5113969;28;20051;-66
2022/06/22 09:28:03;;;;;;;1.92;0.90;;;;;;;27.20;30.00;98567.81;5113813;28;20065;-65
2022/06/22 09:31:02;;;;;;;2.90;0.85;;;;;;;28.52;29.46;98556.91;5108907;28;20036;-65
2022/06/22 09:34:15;;;;;;;2.47;0.82;;;;;;;28.32;29.34;98564.44;5111079;28;20035;-66
2022/06/22 09:37:26;;;;;;;1.20;0.82;;;;;;;29.30;27.91;98563.44;5113052;28;20043;-66
2022/06/22 09:40:31;;;;;;;3.50;1.50;;;;;;;29.94;27.48;98561.88;5089534;28;20063;-66
2022/06/22 09:44:09;;;;;;;2.60;0.80;;;;;;;30.10;30.19;98559.50;5086951;28;20035;-66
2022/06/22 09:46:59;;;;;;;2.42;0.50;;;;;;;31.23;25.42;98549.13;5078923;28;20055;-65
2022/06/22 09:50:06;;;;;;;0.90;0.50;;;;;;;31.12;30.96;98550.03;5084025;28;20063;-64
2022/06/22 09:52:59;;;;;;;2.15;0.57;;;;;;;28.49;27.75;98554.69;5083108;28;20035;-65
2022/06/22 09:56:24;;;;;;;1.40;0.52;;;;;;;29.83;29.15;98551.94;5097259;28;20543;-66
2022/06/22 09:59:32;;;;;;;1.92;0.77;;;;;;;28.92;28.55;98570.03;5091141;28;20084;-66
2022/06/22 10:02:35;;;;;;;1.15;0.60;;;;;;;30.65;26.29;98551.91;5068950;28;20429;-66
2022/06/22 10:05:58;;;;;;;1.00;0.57;;;;;;;30.68;26.74;98550.63;5090820;28;20096;-65
2022/06/22 10:09:06;;;;;;;5.05;0.65;;;;;;;31.30;26.02;98550.81;5115307;28;20135;-66
2022/06/22 10:12:29;;;;;;;1.67;0.60;;;;;;;30.56;25.20;98550.66;5112812;28;20036;-66
2022/06/22 10:15:32;;;;;;;0.98;0.40;;;;;;;30.76;25.94;98549.38;5048052;28;20501;-66
2022/06/22 10:18:32;;;;;;;1.70;0.55;;;;;;;32.04;23.96;98538.03;5102666;28;20051;-66
2022/06/22 10:21:29;;;;;;;1.38;0.63;;;;;;;31.02;24.71;98539.03;5092837;28;20051;-64
2022/06/22 10:24:39;;;;;;;2.15;0.70;;;;;;;30.94;24.67;98534.84;5096019;28;20078;-66
2022/06/22 10:27:33;;;;;;;1.40;0.52;;;;;;;29.06;27.64;98538.31;5111667;28;20391;-67
2022/06/22 10:30:50;;;;;;;1.58;0.60;;;;;;;28.77;27.68;98545.16;5111632;28;20051;-66
2022/06/22 10:33:45;;;;;;;0.90;0.70;;;;;;;28.62;28.15;98531.28;5081740;28;20101;-66
2022/06/22 10:36:48;;;;;;;4.25;0.50;;;;;;;30.89;25.46;98521.25;5101627;28;20108;-66
2022/06/22 10:39:38;;;;;;;1.95;0.60;;;;;;;31.66;26.01;98520.78;5066546;28;20036;-66
2022/06/22 10:45:54;;;;;;;1.25;0.57;;;;;;;31.27;25.19;98522.38;5096373;28;20042;-66
2022/06/22 10:48:57;;;;;;;2.00;0.60;;;;;;;29.39;28.61;98531.56;5101006;28;20031;-66
2022/06/22 10:52:01;;;;;;;0.75;0.47;;;;;;;30.20;25.69;98511.13;5078454;28;20188;-66
2022/06/22 10:55:08;;;;;;;0.73;0.52;;;;;;;30.01;25.94;98518.56;5111110;28;20162;-67
2022/06/22 10:58:02;;;;;;;2.80;0.60;;;;;;;31.70;24.61;98514.59;5084622;28;20528;-66
2022/06/22 11:01:19;;;;;;;0.95;0.60;;;;;;;30.37;25.44;98513.88;5096121;28;20383;-66
2022/06/22 11:04:29;;;;;;;1.98;0.50;;;;;;;31.30;28.24;98516.50;5100882;28;20113;-66
2022/06/22 11:07:47;;;;;;;1.75;0.90;;;;;;;30.90;25.16;98520.19;5111005;28;20028;-66
2022/06/22 11:11:01;;;;;;;0.77;0.50;;;;;;;30.91;25.67;98505.63;5096442;28;20200;-66
2022/06/22 11:13:54;;;;;;;1.73;0.93;;;;;;;31.69;24.62;98509.44;5096439;28;20040;-66
2022/06/22 11:17:04;;;;;;;6.25;2.47;;;;;;;31.20;25.48;98508.22;5100083;28;20407;-65
2022/06/22 11:20:27;;;;;;;1.90;0.50;;;;;;;31.85;24.53;98505.03;5085015;28;20873;-66
2022/06/22 11:23:19;;;;;;;2.38;0.80;;;;;;;30.69;25.33;98499.03;5068910;28;20047;-67
2022/06/22 11:33:53;;;;;;;0.65;0.50;;;;;;;31.12;25.01;98489.69;5076238;28;20076;-66
2022/06/22 11:36:57;;;;;;;1.80;0.88;;;;;;;30.73;26.18;98500.16;5087318;28;20047;-64
2022/06/22 11:39:51;;;;;;;1.13;0.60;;;;;;;30.61;26.28;98485.91;5099437;28;20040;-66
2022/06/22 11:42:47;;;;;;;1.55;0.77;;;;;;;31.13;25.63;98477.81;5111121;28;20031;-67
2022/06/22 11:45:54;;;;;;;0.88;0.65;;;;;;;31.53;24.97;98490.31;5111734;28;20474;-66
2022/06/22 11:48:57;;;;;;;1.95;0.80;;;;;;;32.70;23.56;98494.84;5102662;28;20039;-66
2022/06/22 11:52:06;;;;;;;1.83;0.50;;;;;;;32.71;25.42;98491.03;5085090;28;20042;-66
2022/06/22 11:55:02;;;;;;;2.15;0.77;;;;;;;31.29;25.04;98493.19;5116264;28;20035;-67
2022/06/22 11:57:56;;;;;;;1.65;0.73;;;;;;;30.64;26.03;98492.69;5115129;28;20072;-67
2022/06/22 12:01:03;;;;;;;0.90;0.60;;;;;;;30.90;26.22;98479.63;5115135;28;20043;-68
2022/06/22 12:04:06;;;;;;;2.55;1.00;;;;;;;31.00;26.29;98479.81;5115833;28;20028;-68
2022/06/22 12:06:53;;;;;;;1.45;0.75;;;;;;;31.07;26.11;98475.06;5086678;28;20386;-66
2022/06/22 12:10:15;;;;;;;1.50;0.80;;;;;;;31.21;25.73;98466.56;5127181;28;20064;-65
2022/06/22 12:13:32;;;;;;;0.68;0.57;;;;;;;32.00;25.10;98457.56;5108161;28;20436;-67
2022/06/22 12:16:30;;;;;;;0.95;0.50;;;;;;;30.83;26.64;98469.81;5026660;28;20092;-66
2022/06/22 12:19:41;;;;;;;3.10;0.93;;;;;;;30.55;26.54;98465.28;5113650;28;20051;-65
2022/06/22 12:22:30;;;;;;;;;;;;;;;31.27;25.86;98465.56;5115522;28;20285;-66
2022/06/22 12:25:51;;;;;;;3.05;1.00;;;;;;;32.54;24.71;98464.09;5115241;28;20289;-65
2022/06/22 12:28:40;;;;;;;1.98;0.80;;;;;;;32.51;24.75;98459.94;5070870;28;20040;-67
2022/06/22 12:31:34;;;;;;;1.98;0.80;;;;;;;32.34;24.74;98462.78;5077244;28;20051;-67
2022/06/22 12:34:29;;;;;;;3.45;0.70;;;;;;;31.25;26.34;98461.50;5099048;28;20394;-67
2022/06/22 12:37:23;;;;;;;1.92;0.70;;;;;;;32.30;25.34;98451.66;5114032;28;20047;-67
2022/06/22 12:40:18;;;;;;;1.40;0.68;;;;;;;32.72;26.86;98454.75;5115134;28;20459;-67
2022/06/22 12:43:27;;;;;;;1.70;0.60;;;;;;;31.12;25.69;98457.25;5101723;28;20046;-67
2022/06/22 12:46:28;;;;;;;2.05;0.80;;;;;;;31.46;26.11;98459.91;5114303;28;20036;-66
2022/06/22 12:49:28;;;;;;;2.13;0.80;;;;;;;32.21;26.01;98450.47;5098910;28;20043;-67
2022/06/22 12:52:24;;;;;;;2.08;0.85;;;;;;;30.46;27.38;98451.34;5114124;28;20036;-67
2022/06/22 12:55:18;;;;;;;2.78;0.80;;;;;;;31.59;28.11;98448.72;5088303;28;20039;-66
2022/06/22 12:58:09;;;;;;;2.15;0.85;;;;;;;32.43;24.86;98444.97;5113719;28;20035;-67
2022/06/22 13:00:57;;;;;;;0.88;0.60;;;;;;;31.37;26.21;98442.47;5114227;28;20475;-65
2022/06/22 13:03:53;;;;;;;3.00;0.90;;;;;;;32.13;25.28;98440.09;5114157;28;20102;-67
2022/06/22 13:06:45;;;;;;;1.83;0.60;;;;;;;31.16;28.75;98442.97;5085644;28;20036;-67
2022/06/22 13:09:32;;;;;;;1.83;0.57;;;;;;;31.52;26.47;98445.38;5102313;28;20383;-66
2022/06/22 13:12:30;;;;;;;4.40;0.80;;;;;;;31.53;26.89;98444.31;5096837;28;20039;-67
2022/06/22 13:15:21;;;;;;;4.78;0.77;;;;;;;32.10;25.87;98438.75;5114174;28;20039;-66
2022/06/22 13:18:24;;;;;;;;;;;;;;;30.83;26.71;98440.09;5092464;28;20124;-66
2022/06/22 13:21:25;;;;;;;1.17;0.60;;;;;;;31.05;27.34;98443.91;5113608;28;19915;-65
2022/06/22 13:24:41;;;;;;;4.55;0.73;;;;;;;30.99;26.61;98448.44;5097867;28;20067;-67
2022/06/22 13:27:45;;;;;;;3.25;0.85;;;;;;;32.16;26.50;98432.28;5110479;28;20118;-66
2022/06/22 13:30:42;;;;;;;3.63;1.10;;;;;;;32.78;25.32;98436.59;5110179;28;20093;-67
2022/06/22 13:33:48;;;;;;;1.17;0.80;;;;;;;30.80;27.89;98435.16;5104416;28;20055;-65
2022/06/22 13:36:48;;;;;;;1.45;0.88;;;;;;;31.69;26.09;98429.09;5108830;28;20043;-67
2022/06/22 13:40:00;;;;;;;2.45;1.33;;;;;;;31.19;27.11;98425.47;5114085;28;20062;-67
2022/06/22 13:43:03;;;;;;;2.03;0.80;;;;;;;30.45;27.55;98425.41;5113343;28;20077;-68
2022/06/22 13:46:29;;;;;;;1.52;0.90;;;;;;;30.24;28.14;98420.47;5098227;28;20145;-67
2022/06/22 13:49:26;;;;;;;1.85;0.70;;;;;;;29.46;29.09;98408.16;5092032;28;20048;-70
2022/06/22 13:52:43;;;;;;;1.23;0.75;;;;;;;29.57;29.59;98406.50;5084449;28;20036;-67
2022/06/22 13:55:38;;;;;;;4.10;0.77;;;;;;;29.50;30.18;98401.25;5112686;28;20040;-66
2022/06/22 13:58:35;;;;;;;4.47;1.00;;;;;;;29.19;29.64;98399.78;5077872;28;20119;-66
2022/06/22 14:01:44;;;;;;;1.88;0.90;;;;;;;29.96;29.29;98397.81;5067741;28;20071;-67
2022/06/22 14:04:38;;;;;;;2.80;0.80;;;;;;;29.84;28.91;98395.16;5101536;28;20061;-67
2022/06/22 14:07:30;;;;;;;2.28;0.80;;;;;;;29.04;30.20;98401.09;5111800;28;20047;-66
2022/06/22 14:10:39;;;;;;;3.97;0.90;;;;;;;28.17;30.89;98386.09;5100378;28;20524;-65
2022/06/22 14:13:38;;;;;;;1.73;0.82;;;;;;;29.04;29.91;98397.56;5114739;28;20039;-67